Portland, Colorado
Current Conditions -  °F | °C
As of 2:15 AM on Sunday 26 Oct 2014 (Local Time) from K1V6 Reporting Station
Clear Clear  
Wind Chill: 64°   Ceiling: Unl
Heat Index: 64°   Visibility: 10mi
Dew Point: 28°   Wind: 18mph
Humidity: 26%   Direction: 280°W
Pressure: 30"   Gusts: 24mph
Location:  38.3191°N, 105.161°W
Report Text: K1V6 260815Z AUTO 28016G21KT 10SM CLR 18/M02 A3000 RMK AO2
Loading
Personal Weather Stations






























Interactive Weather Map
Tropical Storm Tracking
New forecast layout! Learn more

10-Day Weather Forecast

Advertisements
Track Severe Weather on mobile